Time;durP1;ratioP1;P1;durP2;ratioP2;P2;SDS_P1;SDS_P2;PMS_P1;PMS_P2;Temp;Humidity;BMP_temperature;BMP_pressure;BME280_temperature;BME280_humidity;BME280_pressure;Samples;Min_cycle;Max_cycle;Signal;HPM_P1;HPM_P2
2022/09/23 00:01:06;;;;;;;3.38;2.28;;;6.00;99.90;;;;;;5093224;28;20044;-47
2022/09/23 00:03:36;;;;;;;6.55;2.85;;;5.90;99.90;;;;;;5075469;28;20042;-48
2022/09/23 00:06:06;;;;;;;4.75;2.70;;;5.90;99.90;;;;;;5093746;28;20040;-46
2022/09/23 00:08:32;;;;;;;3.88;2.35;;;5.90;99.90;;;;;;5085523;28;20063;-46
2022/09/23 00:11:04;;;;;;;5.03;2.85;;;5.80;99.90;;;;;;5092625;28;20055;-46
2022/09/23 00:13:32;;;;;;;5.25;2.20;;;5.80;99.90;;;;;;5093319;28;20484;-46
2022/09/23 00:16:05;;;;;;;4.18;2.50;;;5.80;99.90;;;;;;5093466;28;20044;-47
2022/09/23 00:18:34;;;;;;;6.57;2.92;;;5.80;99.90;;;;;;5085337;28;20514;-46
2022/09/23 00:21:03;;;;;;;4.15;2.90;;;5.70;99.90;;;;;;5093126;28;20047;-48
2022/09/23 00:23:30;;;;;;;5.93;2.38;;;5.80;99.90;;;;;;5092872;28;20040;-46
2022/09/23 00:25:58;;;;;;;5.10;2.78;;;5.70;99.90;;;;;;5093078;28;20074;-46
2022/09/23 00:28:25;;;;;;;5.22;2.72;;;5.70;99.90;;;;;;5092678;28;20104;-46
2022/09/23 00:30:51;;;;;;;6.18;2.45;;;5.60;99.90;;;;;;5097633;22;20468;-46
2022/09/23 00:33:18;;;;;;;6.97;3.10;;;5.70;99.90;;;;;;5101448;28;20044;-45
2022/09/23 00:35:46;;;;;;;3.92;2.78;;;5.70;99.90;;;;;;5098179;28;20071;-46
2022/09/23 00:38:13;;;;;;;;;;;5.80;99.90;;;;;;5094967;28;20066;-45
2022/09/23 00:40:44;;;;;;;4.55;3.20;;;5.90;99.90;;;;;;5087607;28;20003;-45
2022/09/23 00:43:13;;;;;;;6.32;3.45;;;6.00;99.90;;;;;;5077309;28;20047;-46
2022/09/23 00:45:46;;;;;;;7.30;3.38;;;6.00;99.90;;;;;;5078432;28;20068;-45
2022/09/23 00:48:19;;;;;;;4.22;3.15;;;6.00;99.90;;;;;;5071374;28;20036;-45
2022/09/23 00:50:53;;;;;;;4.45;2.72;;;6.10;99.90;;;;;;5071324;28;20123;-45
2022/09/23 00:53:22;;;;;;;4.20;2.85;;;6.00;99.90;;;;;;5070838;28;20115;-45
2022/09/23 00:55:56;;;;;;;4.43;2.90;;;5.90;99.90;;;;;;5072027;28;20072;-45
2022/09/23 00:58:26;;;;;;;3.72;2.67;;;5.90;99.90;;;;;;5071963;28;20051;-45
2022/09/23 01:00:54;;;;;;;5.65;2.70;;;5.80;99.90;;;;;;5068438;28;20559;-46
2022/09/23 01:03:21;;;;;;;5.72;3.10;;;5.80;99.90;;;;;;5071893;28;20128;-45
2022/09/23 01:05:49;;;;;;;;;;;5.80;99.90;;;;;;5070865;28;20052;-46
2022/09/23 01:08:16;;;;;;;9.02;3.38;;;5.80;99.90;;;;;;5072467;28;19955;-45
2022/09/23 01:11:04;;;;;;;7.25;3.25;;;5.80;99.90;;;;;;5070596;28;20128;-45
2022/09/23 01:14:04;;;;;;;4.57;2.25;;;5.90;99.90;;;;;;5075043;28;20036;-45
2022/09/23 01:16:43;;;;;;;6.78;2.35;;;5.90;99.90;;;;;;5072105;28;20498;-46
2022/09/23 01:19:33;;;;;;;6.57;2.50;;;5.80;99.90;;;;;;5071444;28;20043;-45
2022/09/23 01:22:26;;;;;;;4.10;2.80;;;5.70;99.90;;;;;;5064589;28;20132;-45
2022/09/23 01:25:24;;;;;;;4.40;3.20;;;5.60;99.90;;;;;;5071099;28;20128;-46
2022/09/23 01:28:16;;;;;;;6.45;2.90;;;5.70;99.90;;;;;;5066719;28;20106;-45
2022/09/23 01:30:52;;;;;;;5.53;3.50;;;5.70;99.90;;;;;;5069883;28;20052;-45
2022/09/23 01:33:33;;;;;;;10.02;3.42;;;5.80;99.90;;;;;;5069231;28;20044;-45
2022/09/23 01:36:11;;;;;;;3.53;2.85;;;5.80;99.90;;;;;;5071000;28;20080;-47
2022/09/23 01:39:06;;;;;;;6.77;3.27;;;5.80;99.90;;;;;;5053467;28;20064;-45
2022/09/23 01:41:52;;;;;;;7.50;3.15;;;5.80;99.90;;;;;;5056931;28;20040;-45
2022/09/23 01:44:40;;;;;;;6.28;3.35;;;5.80;99.90;;;;;;5071425;28;20115;-45
2022/09/23 01:47:11;;;;;;;7.47;3.20;;;5.80;99.90;;;;;;5071945;28;20136;-45
2022/09/23 01:49:49;;;;;;;5.82;3.42;;;5.90;99.90;;;;;;5071934;28;20048;-45
2022/09/23 01:52:39;;;;;;;4.88;3.08;;;5.90;99.90;;;;;;5066145;28;20115;-45
2022/09/23 01:55:14;;;;;;;5.35;3.22;;;5.80;99.90;;;;;;5066851;28;20044;-45
2022/09/23 01:58:04;;;;;;;4.30;3.17;;;5.90;99.90;;;;;;5070845;28;20044;-45
2022/09/23 02:00:35;;;;;;;5.40;3.17;;;5.80;99.90;;;;;;5071854;28;20064;-45
2022/09/23 02:03:09;;;;;;;6.80;3.13;;;5.70;99.90;;;;;;5067306;28;20564;-45
2022/09/23 02:05:43;;;;;;;5.82;3.40;;;5.70;99.90;;;;;;5053403;28;20144;-46
2022/09/23 02:08:19;;;;;;;5.10;3.47;;;5.70;99.90;;;;;;5071316;28;20040;-45
2022/09/23 02:10:57;;;;;;;6.35;3.42;;;5.70;99.90;;;;;;5070276;28;20127;-45
2022/09/23 02:13:40;;;;;;;5.78;3.60;;;5.70;99.90;;;;;;5071506;28;20132;-46
2022/09/23 02:16:17;;;;;;;5.45;3.85;;;5.70;99.90;;;;;;5068438;28;20068;-45
2022/09/23 02:18:56;;;;;;;6.35;3.78;;;5.60;99.90;;;;;;5054526;28;20059;-45
2022/09/23 02:21:27;;;;;;;8.30;3.05;;;5.60;99.90;;;;;;5070599;28;20044;-45
2022/09/23 02:24:03;;;;;;;4.90;3.63;;;5.60;99.90;;;;;;5067649;28;20037;-46
2022/09/23 02:26:36;;;;;;;4.55;3.03;;;5.70;99.90;;;;;;5071277;28;20053;-46
2022/09/23 02:29:20;;;;;;;7.28;4.03;;;5.70;99.90;;;;;;5071084;28;20127;-45
2022/09/23 02:32:17;;;;;;;3.85;3.05;;;5.70;99.90;;;;;;5068482;28;20040;-46
2022/09/23 02:35:02;;;;;;;7.75;3.30;;;5.60;99.90;;;;;;5070481;28;20127;-45
2022/09/23 02:37:47;;;;;;;7.07;4.07;;;5.60;99.90;;;;;;5069856;28;20075;-45
2022/09/23 02:40:22;;;;;;;5.45;3.33;;;5.60;99.90;;;;;;5071109;28;20047;-45
2022/09/23 02:43:10;;;;;;;5.28;3.08;;;5.70;99.90;;;;;;5070380;28;20044;-45
2022/09/23 02:45:37;;;;;;;8.85;3.63;;;5.60;99.90;;;;;;5070385;28;20465;-46
2022/09/23 02:48:09;;;;;;;6.72;3.53;;;5.50;99.90;;;;;;5067900;28;20059;-45
2022/09/23 02:50:37;;;;;;;5.30;3.42;;;5.50;99.90;;;;;;5070646;28;20458;-45
2022/09/23 02:53:05;;;;;;;7.35;3.55;;;5.50;99.90;;;;;;5070959;28;20059;-45
2022/09/23 02:55:32;;;;;;;6.45;3.35;;;5.50;99.90;;;;;;5069358;28;20043;-45
2022/09/23 02:58:00;;;;;;;5.78;3.53;;;5.50;99.90;;;;;;5070873;28;20128;-45
2022/09/23 03:00:37;;;;;;;5.85;3.50;;;5.50;99.90;;;;;;5069909;28;20127;-45
2022/09/23 03:03:44;;;;;;;5.73;3.23;;;5.40;99.90;;;;;;5071013;28;20120;-46
2022/09/23 03:06:41;;;;;;;7.75;2.88;;;5.40;99.90;;;;;;5071798;28;20123;-45
2022/09/23 03:09:32;;;;;;;6.97;3.47;;;5.30;99.90;;;;;;5056639;28;20135;-46
2022/09/23 03:12:33;;;;;;;5.32;3.35;;;5.30;99.90;;;;;;5074430;28;20152;-45
2022/09/23 03:15:34;;;;;;;7.05;4.03;;;5.30;99.90;;;;;;5079229;28;20123;-45
2022/09/23 03:18:11;;;;;;;7.07;3.45;;;5.30;99.90;;;;;;5074648;28;20040;-45
2022/09/23 03:20:51;;;;;;;7.32;3.58;;;5.30;99.90;;;;;;5073892;28;20123;-45
2022/09/23 03:23:24;;;;;;;6.20;3.42;;;5.40;99.90;;;;;;5073291;28;20140;-45
2022/09/23 03:25:53;;;;;;;5.18;3.42;;;5.40;99.90;;;;;;5068916;28;20123;-45
2022/09/23 03:28:21;;;;;;;6.90;2.45;;;5.40;99.90;;;;;;5070358;28;20068;-45
2022/09/23 03:30:51;;;;;;;4.50;2.60;;;5.40;99.90;;;;;;5072303;28;20087;-46
2022/09/23 03:33:23;;;;;;;6.53;2.33;;;5.40;99.90;;;;;;5074307;28;20120;-45
2022/09/23 03:38:51;;;;;;;3.50;2.60;;;5.10;99.90;;;;;;5072306;28;20397;-45
2022/09/23 03:41:28;;;;;;;7.60;2.78;;;5.00;99.90;;;;;;5077541;28;20039;-45
2022/09/23 03:43:57;;;;;;;4.75;2.72;;;4.80;99.90;;;;;;5076488;28;20533;-45
2022/09/23 03:46:28;;;;;;;5.57;3.45;;;4.80;99.90;;;;;;5074832;28;20136;-45
2022/09/23 03:49:28;;;;;;;5.68;2.90;;;4.80;99.90;;;;;;5079864;28;20052;-45
2022/09/23 03:51:55;;;;;;;5.80;3.60;;;4.80;99.90;;;;;;5080354;28;20655;-45
2022/09/23 03:54:22;;;;;;;6.63;3.85;;;4.80;99.90;;;;;;5073692;28;20052;-45
2022/09/23 03:56:48;;;;;;;6.13;3.73;;;4.90;99.90;;;;;;5073217;28;20507;-45
2022/09/23 03:59:15;;;;;;;5.53;3.67;;;4.90;99.90;;;;;;5072711;28;20850;-45
2022/09/23 04:01:42;;;;;;;8.18;3.88;;;4.90;99.90;;;;;;5073414;28;20140;-45
2022/09/23 04:04:09;;;;;;;12.52;3.72;;;4.90;99.90;;;;;;5072416;28;20539;-45
2022/09/23 04:06:36;;;;;;;7.95;3.78;;;4.90;99.90;;;;;;5073298;28;20131;-45
2022/09/23 04:09:03;;;;;;;4.47;3.23;;;5.00;99.90;;;;;;5073249;28;20044;-45
2022/09/23 04:11:29;;;;;;;5.80;3.25;;;5.00;99.90;;;;;;5071842;28;20318;-45
2022/09/23 04:13:56;;;;;;;6.57;3.80;;;5.00;99.90;;;;;;5072766;28;20051;-45
2022/09/23 04:16:23;;;;;;;4.75;3.22;;;5.00;99.90;;;;;;5063385;28;20049;-45
2022/09/23 04:18:50;;;;;;;5.72;3.42;;;5.00;99.90;;;;;;5072910;28;20730;-45
2022/09/23 04:21:17;;;;;;;11.00;4.57;;;5.00;99.90;;;;;;5071639;28;20135;-45
2022/09/23 04:23:45;;;;;;;6.07;3.97;;;5.00;99.90;;;;;;5072835;28;20047;-45
2022/09/23 04:26:12;;;;;;;5.57;3.90;;;5.00;99.90;;;;;;5071567;28;20040;-45
2022/09/23 04:28:39;;;;;;;4.90;3.38;;;5.00;99.90;;;;;;5073016;28;20615;-46
2022/09/23 04:31:08;;;;;;;6.22;4.05;;;5.00;99.90;;;;;;5071661;28;20115;-45
2022/09/23 04:33:35;;;;;;;8.73;4.38;;;5.00;99.90;;;;;;5073141;28;20041;-46
2022/09/23 04:36:01;;;;;;;7.07;3.58;;;5.00;99.90;;;;;;5068532;28;20045;-46
2022/09/23 04:38:28;;;;;;;8.38;3.97;;;5.00;99.90;;;;;;5071763;28;20497;-46
2022/09/23 04:40:55;;;;;;;6.20;3.70;;;5.00;99.90;;;;;;5072089;28;20433;-45
2022/09/23 04:43:22;;;;;;;10.95;4.03;;;5.00;99.90;;;;;;5071564;28;20083;-45
2022/09/23 04:46:04;;;;;;;6.68;3.72;;;5.00;99.90;;;;;;5053441;28;20158;-45
2022/09/23 04:48:31;;;;;;;7.15;3.53;;;4.90;99.90;;;;;;5071936;28;20140;-46
2022/09/23 04:51:03;;;;;;;7.50;3.53;;;5.00;99.90;;;;;;5072794;28;20067;-45
2022/09/23 04:53:30;;;;;;;5.72;3.55;;;5.00;99.90;;;;;;5070675;28;20127;-45
2022/09/23 04:56:20;;;;;;;;;;;5.00;99.90;;;;;;5065520;28;20554;-45
2022/09/23 04:58:51;;;;;;;8.00;3.45;;;5.00;99.90;;;;;;5061591;28;20023;-47
2022/09/23 05:01:47;;;;;;;6.28;3.72;;;5.00;99.90;;;;;;5063431;28;20057;-46
2022/09/23 05:04:14;;;;;;;9.57;3.42;;;5.00;99.90;;;;;;5071749;28;20443;-46
2022/09/23 05:06:43;;;;;;;5.70;3.60;;;5.00;99.90;;;;;;5070864;28;20041;-47
2022/09/23 05:09:15;;;;;;;5.85;3.95;;;4.90;99.90;;;;;;5071859;28;20303;-46
2022/09/23 05:11:42;;;;;;;7.22;3.60;;;4.90;99.90;;;;;;5066146;28;20055;-46
2022/09/23 05:14:09;;;;;;;7.20;3.90;;;4.90;99.90;;;;;;5071962;28;20574;-47
2022/09/23 05:16:35;;;;;;;8.18;4.05;;;4.90;99.90;;;;;;5064223;28;20115;-45
2022/09/23 05:19:02;;;;;;;10.05;3.63;;;4.90;99.90;;;;;;5065716;28;20606;-45
2022/09/23 05:21:30;;;;;;;10.68;3.47;;;4.90;99.90;;;;;;5057374;28;20043;-45
2022/09/23 05:23:59;;;;;;;;;;;5.00;99.90;;;;;;5071528;28;20049;-45
2022/09/23 05:26:31;;;;;;;11.43;3.95;;;5.00;99.90;;;;;;5070666;28;19929;-45
2022/09/23 05:28:59;;;;;;;10.00;4.30;;;5.40;99.90;;;;;;5070864;28;20136;-46
2022/09/23 05:31:28;;;;;;;11.93;4.13;;;5.10;99.90;;;;;;5062704;28;20041;-46
2022/09/23 05:34:00;;;;;;;7.28;3.72;;;5.10;99.90;;;;;;5071223;28;20051;-45
2022/09/23 05:36:29;;;;;;;5.00;3.72;;;5.10;99.90;;;;;;5069377;28;20047;-45
2022/09/23 05:39:03;;;;;;;8.30;4.28;;;5.10;99.90;;;;;;5068171;28;20111;-47
2022/09/23 05:41:30;;;;;;;7.90;4.15;;;5.10;99.90;;;;;;5069558;28;20139;-46
2022/09/23 05:43:58;;;;;;;6.80;4.15;;;5.10;99.90;;;;;;5071135;28;20493;-45
2022/09/23 05:46:27;;;;;;;8.98;5.10;;;5.10;99.90;;;;;;5070887;28;20080;-46
2022/09/23 05:48:58;;;;;;;9.75;4.15;;;5.20;99.90;;;;;;5068649;28;20055;-45
2022/09/23 05:51:29;;;;;;;7.13;4.07;;;5.20;99.90;;;;;;5069375;28;20044;-45
2022/09/23 05:53:58;;;;;;;6.55;3.88;;;5.20;99.90;;;;;;5069413;28;20054;-45
2022/09/23 05:56:26;;;;;;;12.38;4.50;;;5.30;99.90;;;;;;5069163;28;20054;-45
2022/09/23 05:58:56;;;;;;;8.70;4.60;;;5.30;99.90;;;;;;5071302;28;20115;-45
2022/09/23 06:01:30;;;;;;;9.85;4.60;;;5.30;99.90;;;;;;5050013;28;20474;-46
2022/09/23 06:03:58;;;;;;;12.90;4.72;;;5.30;99.90;;;;;;5071205;28;20555;-45
2022/09/23 06:06:30;;;;;;;11.27;4.95;;;5.20;99.90;;;;;;5064505;28;20044;-45
2022/09/23 06:08:58;;;;;;;9.77;4.75;;;5.30;99.90;;;;;;5071334;28;20449;-45
2022/09/23 06:11:28;;;;;;;10.23;3.72;;;5.30;99.90;;;;;;5071411;28;20485;-45
2022/09/23 06:13:59;;;;;;;7.63;3.97;;;5.30;99.90;;;;;;5065455;28;20127;-45
2022/09/23 06:16:28;;;;;;;6.88;4.00;;;5.30;99.90;;;;;;5070597;28;20045;-45
2022/09/23 06:18:55;;;;;;;7.45;3.92;;;5.30;99.90;;;;;;5070889;28;20439;-45
2022/09/23 06:21:26;;;;;;;6.88;3.88;;;5.30;99.90;;;;;;5065100;28;20045;-45
2022/09/23 06:23:53;;;;;;;8.07;4.05;;;5.30;99.90;;;;;;5071186;28;20131;-45
2022/09/23 06:26:22;;;;;;;5.90;3.70;;;5.30;99.90;;;;;;5071242;28;20119;-45
2022/09/23 06:28:49;;;;;;;7.93;4.50;;;5.30;99.90;;;;;;5063101;28;20123;-45
2022/09/23 06:31:16;;;;;;;16.48;3.83;;;5.30;99.90;;;;;;5089436;22;20169;-48
2022/09/23 06:33:44;;;;;;;10.40;4.53;;;5.30;99.90;;;;;;5090095;28;20291;-49
2022/09/23 06:36:13;;;;;;;8.05;4.35;;;5.40;99.90;;;;;;5091148;28;20527;-47
2022/09/23 06:38:56;;;;;;;7.88;5.05;;;5.50;99.90;;;;;;5087757;28;20078;-48
2022/09/23 06:41:23;;;;;;;10.73;5.32;;;5.80;99.90;;;;;;5090493;28;20140;-47
2022/09/23 06:43:49;;;;;;;8.60;5.35;;;5.90;99.90;;;;;;5089748;28;20480;-47
2022/09/23 06:46:16;;;;;;;12.47;5.57;;;6.00;99.90;;;;;;5091157;28;20048;-49
2022/09/23 06:48:43;;;;;;;7.28;4.40;;;6.20;99.90;;;;;;5091479;28;20048;-48
2022/09/23 06:51:20;;;;;;;8.13;5.82;;;6.30;99.90;;;;;;5089716;28;20066;-48
2022/09/23 06:53:48;;;;;;;7.43;4.95;;;6.50;99.90;;;;;;5090935;28;20076;-47
2022/09/23 06:56:15;;;;;;;;;;;6.70;99.90;;;;;;5091383;28;20552;-48
2022/09/23 06:58:42;;;;;;;9.00;4.38;;;6.90;99.90;;;;;;5069282;28;19920;-49
2022/09/23 07:01:17;;;;;;;11.65;5.05;;;7.00;99.90;;;;;;5084844;28;20044;-48
2022/09/23 07:03:48;;;;;;;10.48;4.50;;;7.20;99.90;;;;;;5090813;28;20127;-49
2022/09/23 07:06:16;;;;;;;7.28;3.88;;;7.30;99.90;;;;;;5084249;28;20123;-48
2022/09/23 07:08:45;;;;;;;10.18;3.97;;;7.40;99.90;;;;;;5090709;28;20048;-48
2022/09/23 07:11:13;;;;;;;6.47;4.35;;;7.40;99.90;;;;;;5090551;28;20048;-47
2022/09/23 07:13:41;;;;;;;12.38;4.25;;;7.60;99.90;;;;;;5089760;28;20473;-48
2022/09/23 07:16:09;;;;;;;6.82;3.67;;;7.70;99.90;;;;;;5084540;28;20051;-48
2022/09/23 07:18:37;;;;;;;5.43;3.22;;;7.90;99.90;;;;;;5091044;28;20109;-48
2022/09/23 07:21:10;;;;;;;5.97;3.30;;;7.90;99.90;;;;;;5090705;28;20131;-48
2022/09/23 07:23:37;;;;;;;7.75;3.35;;;8.00;99.90;;;;;;5089420;28;20054;-49
2022/09/23 07:26:06;;;;;;;;;;;8.20;99.90;;;;;;5091376;28;20040;-49
2022/09/23 07:28:35;;;;;;;5.40;2.95;;;8.20;99.90;;;;;;5069938;28;20399;-48
2022/09/23 07:31:08;;;;;;;9.18;3.15;;;8.20;99.90;;;;;;5090537;28;20097;-48
2022/09/23 07:33:37;;;;;;;4.28;2.85;;;8.40;99.90;;;;;;5090454;28;20484;-48
2022/09/23 07:36:16;;;;;;;6.80;3.17;;;8.50;99.90;;;;;;5090933;28;20044;-48
2022/09/23 07:38:43;;;;;;;12.40;3.28;;;8.60;99.90;;;;;;5084917;28;20064;-48
2022/09/23 07:41:14;;;;;;;5.10;2.70;;;8.70;99.90;;;;;;5090716;28;20530;-48
2022/09/23 07:43:41;;;;;;;3.58;2.55;;;8.80;99.90;;;;;;5094184;28;20032;-47
2022/09/23 07:46:12;;;;;;;7.50;2.88;;;9.00;99.90;;;;;;5092086;28;20051;-48
2022/09/23 07:48:39;;;;;;;9.70;3.42;;;9.10;99.90;;;;;;5083692;28;20040;-48
2022/09/23 07:51:28;;;;;;;4.78;2.95;;;9.20;99.90;;;;;;5073943;28;20544;-48
2022/09/23 07:54:01;;;;;;;5.22;2.92;;;9.30;99.90;;;;;;5073099;28;20052;-50
2022/09/23 07:56:28;;;;;;;;;;;9.40;99.90;;;;;;5082524;28;20123;-48
2022/09/23 07:59:04;;;;;;;5.10;3.08;;;9.50;99.90;;;;;;5073155;28;20310;-47
2022/09/23 08:01:41;;;;;;;3.97;2.38;;;9.60;99.90;;;;;;5084218;28;20376;-49
2022/09/23 08:04:14;;;;;;;5.72;2.60;;;9.70;99.90;;;;;;5093678;28;20048;-48
2022/09/23 08:06:43;;;;;;;4.43;2.70;;;9.70;99.90;;;;;;5090653;28;20496;-48
2022/09/23 08:09:11;;;;;;;4.15;2.80;;;9.80;99.90;;;;;;5093813;28;20127;-48
2022/09/23 08:11:40;;;;;;;6.88;2.95;;;9.90;99.90;;;;;;5093962;28;20132;-48
2022/09/23 08:14:09;;;;;;;2.90;2.15;;;10.00;99.90;;;;;;5093138;28;20496;-48
2022/09/23 08:16:36;;;;;;;8.77;2.97;;;10.20;99.90;;;;;;5090403;28;20135;-48
2022/09/23 08:19:03;;;;;;;4.68;2.60;;;10.30;99.90;;;;;;5075661;28;20135;-49
2022/09/23 08:21:31;;;;;;;7.68;2.63;;;10.30;99.90;;;;;;5093784;28;20072;-49
2022/09/23 08:23:58;;;;;;;3.97;2.63;;;10.50;99.90;;;;;;5091579;28;20119;-48
2022/09/23 08:26:25;;;;;;;3.15;2.40;;;10.60;99.90;;;;;;5093478;28;20044;-49
2022/09/23 08:28:55;;;;;;;4.38;2.05;;;10.70;99.90;;;;;;5092317;28;20130;-48
2022/09/23 08:31:22;;;;;;;2.08;1.65;;;10.80;99.90;;;;;;5093338;28;20044;-49
2022/09/23 08:33:58;;;;;;;5.50;2.13;;;11.00;99.90;;;;;;5091119;28;20070;-49
2022/09/23 08:36:25;;;;;;;5.22;2.30;;;11.10;99.90;;;;;;5092611;28;20122;-48
2022/09/23 08:38:52;;;;;;;3.47;2.30;;;11.20;99.90;;;;;;5093357;28;20123;-48
2022/09/23 08:41:42;;;;;;;3.53;2.50;;;11.30;99.90;;;;;;5093444;28;20036;-49
2022/09/23 08:44:19;;;;;;;3.92;2.13;;;11.40;99.90;;;;;;5091743;28;20054;-50
2022/09/23 08:46:54;;;;;;;2.58;1.95;;;11.50;99.90;;;;;;5093396;28;20070;-49
2022/09/23 08:49:30;;;;;;;3.72;1.80;;;11.60;99.90;;;;;;5093327;28;20048;-49
2022/09/23 08:52:05;;;;;;;3.60;2.00;;;11.80;99.90;;;;;;5090165;28;20040;-47
2022/09/23 08:54:33;;;;;;;4.57;2.15;;;11.90;99.90;;;;;;5092703;28;20127;-51
2022/09/23 08:57:01;;;;;;;2.80;2.08;;;12.00;99.90;;;;;;5093407;28;20044;-50
2022/09/23 08:59:41;;;;;;;5.40;2.40;;;12.10;99.90;;;;;;5092110;28;20067;-51
2022/09/23 09:02:20;;;;;;;12.65;2.25;;;12.20;99.90;;;;;;5091742;28;20044;-50
2022/09/23 09:04:52;;;;;;;3.05;1.90;;;12.30;99.90;;;;;;5089408;28;20051;-49
2022/09/23 09:07:28;;;;;;;2.97;1.77;;;12.40;99.90;;;;;;5090233;28;20074;-48
2022/09/23 09:10:13;;;;;;;2.47;1.80;;;12.50;99.90;;;;;;5091924;28;20048;-48
2022/09/23 09:12:44;;;;;;;6.82;2.15;;;12.50;99.90;;;;;;5091552;28;20074;-48
2022/09/23 09:15:15;;;;;;;7.38;2.00;;;12.60;99.90;;;;;;5091504;28;20119;-48
2022/09/23 09:17:48;;;;;;;3.65;1.88;;;12.70;99.90;;;;;;5091399;28;20044;-49
2022/09/23 09:20:17;;;;;;;3.90;1.80;;;12.80;99.90;;;;;;5092537;28;20472;-47
2022/09/23 09:23:01;;;;;;;2.75;1.67;;;12.90;99.90;;;;;;5092670;28;20051;-52
2022/09/23 09:25:38;;;;;;;3.08;1.70;;;13.00;99.90;;;;;;5091185;28;20072;-51
2022/09/23 09:28:32;;;;;;;4.07;2.25;;;13.20;99.90;;;;;;5092373;28;20464;-50
2022/09/23 09:31:01;;;;;;;4.30;2.00;;;13.30;99.90;;;;;;5092425;28;20134;-49
2022/09/23 09:33:50;;;;;;;5.25;2.10;;;13.30;99.90;;;;;;5091544;28;20386;-50
2022/09/23 09:36:38;;;;;;;2.50;1.75;;;13.40;99.90;;;;;;5091033;28;20500;-52
2022/09/23 09:39:11;;;;;;;5.25;2.42;;;13.60;99.90;;;;;;5092081;28;20071;-49
2022/09/23 09:41:40;;;;;;;4.20;2.13;;;13.60;99.90;;;;;;5083703;28;20046;-51
2022/09/23 09:44:35;;;;;;;3.83;2.40;;;13.70;99.90;;;;;;5087020;28;20124;-52
2022/09/23 09:47:27;;;;;;;3.65;2.15;;;13.80;99.90;;;;;;5091190;28;20108;-49
2022/09/23 09:50:08;;;;;;;6.43;2.28;;;14.00;99.90;;;;;;5092089;28;20127;-51
2022/09/23 09:52:36;;;;;;;5.30;2.00;;;14.20;99.90;;;;;;5082633;28;20044;-49
2022/09/23 09:55:12;;;;;;;3.67;1.95;;;14.10;99.90;;;;;;5073978;28;20064;-50
2022/09/23 09:57:51;;;;;;;2.92;2.10;;;14.20;99.90;;;;;;5071468;28;20470;-51
2022/09/23 10:00:33;;;;;;;5.22;1.75;;;14.20;99.90;;;;;;5072845;28;20043;-51
2022/09/23 10:03:07;;;;;;;4.00;1.65;;;14.40;99.90;;;;;;5091917;28;20123;-51
2022/09/23 10:05:48;;;;;;;4.13;1.65;;;14.50;99.90;;;;;;5091457;28;20132;-49
2022/09/23 10:08:18;;;;;;;2.58;1.35;;;14.60;99.90;;;;;;5086865;28;20463;-51
2022/09/23 10:11:14;;;;;;;2.47;1.55;;;14.70;99.90;;;;;;5088523;28;20062;-51
2022/09/23 10:13:59;;;;;;;3.00;1.70;;;14.80;99.90;;;;;;5090088;28;20059;-47
2022/09/23 10:16:27;;;;;;;3.08;1.67;;;14.70;99.90;;;;;;5091240;28;20130;-51
2022/09/23 10:18:55;;;;;;;2.28;1.67;;;14.80;99.90;;;;;;5091722;28;20052;-49
2022/09/23 10:21:24;;;;;;;2.95;1.50;;;14.80;99.90;;;;;;5089130;28;20127;-49
2022/09/23 10:24:00;;;;;;;3.00;1.75;;;14.80;99.90;;;;;;5091117;28;20047;-51
2022/09/23 10:26:42;;;;;;;3.35;1.80;;;15.00;99.90;;;;;;5091695;28;20385;-48
2022/09/23 10:29:27;;;;;;;2.65;1.48;;;15.10;99.90;;;;;;5086300;28;20396;-49
2022/09/23 10:32:31;;;;;;;5.00;1.83;;;15.20;99.90;;;;;;5091201;28;20064;-48
2022/09/23 10:35:13;;;;;;;3.25;1.50;;;15.40;99.90;;;;;;5091054;28;20473;-47
2022/09/23 10:37:43;;;;;;;1.67;1.52;;;15.50;99.90;;;;;;5089476;28;20119;-48
2022/09/23 10:46:37;;;;;;;3.17;1.75;;;15.70;99.90;;;;;;5072261;28;20491;-47
2022/09/23 10:49:26;;;;;;;2.15;1.30;;;15.70;99.90;;;;;;5087808;28;20051;-47
2022/09/23 10:51:53;;;;;;;2.00;1.45;;;15.80;99.90;;;;;;5091734;28;20082;-47
2022/09/23 10:54:46;;;;;;;2.90;1.60;;;15.90;99.90;;;;;;5090899;28;20040;-48
2022/09/23 10:57:42;;;;;;;1.80;1.33;;;15.90;99.90;;;;;;5088641;28;20441;-49
2022/09/23 11:00:21;;;;;;;1.73;1.60;;;15.80;99.90;;;;;;5091188;28;20070;-48
2022/09/23 11:03:25;;;;;;;1.73;1.45;;;15.90;99.90;;;;;;5090860;28;20091;-47
2022/09/23 11:06:06;;;;;;;2.67;1.48;;;16.00;99.90;;;;;;5084616;28;20123;-47
2022/09/23 11:09:14;;;;;;;2.33;1.52;;;16.20;99.90;;;;;;5091185;28;20130;-47
2022/09/23 11:12:18;;;;;;;3.40;1.33;;;16.20;99.90;;;;;;5089770;28;20039;-47
2022/09/23 11:15:21;;;;;;;5.32;1.90;;;16.30;99.90;;;;;;5089163;28;20135;-47
2022/09/23 11:17:58;;;;;;;12.30;2.53;;;16.50;99.90;;;;;;5091088;28;20068;-48
2022/09/23 11:20:38;;;;;;;6.10;1.88;;;16.40;99.90;;;;;;5088599;28;20040;-48
2022/09/23 11:23:17;;;;;;;4.82;1.75;;;16.30;99.90;;;;;;5088497;28;20064;-48
2022/09/23 11:25:55;;;;;;;2.72;1.90;;;16.40;99.90;;;;;;5088640;28;20043;-47
2022/09/23 11:28:41;;;;;;;2.22;1.50;;;16.50;99.90;;;;;;5095014;28;20082;-48
2022/09/23 11:31:18;;;;;;;3.60;1.63;;;16.70;99.90;;;;;;5091284;28;20048;-49
2022/09/23 11:34:00;;;;;;;4.17;1.40;;;16.90;99.90;;;;;;5094609;28;20055;-48
2022/09/23 11:36:35;;;;;;;3.22;1.55;;;17.00;99.90;;;;;;5094612;28;20770;-49
2022/09/23 11:39:10;;;;;;;2.83;1.90;;;17.10;99.90;;;;;;5090501;28;20111;-48
2022/09/23 11:41:39;;;;;;;3.20;1.85;;;17.10;99.90;;;;;;5093334;28;20064;-48
2022/09/23 11:44:07;;;;;;;2.55;1.40;;;17.30;99.90;;;;;;5092925;28;20461;-48
2022/09/23 11:46:39;;;;;;;2.75;1.40;;;17.30;99.90;;;;;;5105868;28;20115;-47
2022/09/23 11:49:14;;;;;;;5.60;2.20;;;17.30;99.90;;;;;;5112027;28;20123;-48
2022/09/23 11:52:18;;;;;;;1.95;1.40;;;17.30;99.90;;;;;;5104674;28;20114;-48
2022/09/23 11:54:50;;;;;;;2.33;1.40;;;17.40;99.90;;;;;;5103760;28;20067;-48
2022/09/23 11:57:32;;;;;;;2.05;1.50;;;17.60;99.90;;;;;;5084319;28;20055;-48
2022/09/23 12:00:19;;;;;;;5.10;1.67;;;17.80;99.90;;;;;;5093026;28;20043;-49
2022/09/23 12:02:55;;;;;;;5.43;1.90;;;17.90;99.90;;;;;;5093212;28;20078;-47
2022/09/23 12:05:38;;;;;;;2.75;1.42;;;17.90;99.90;;;;;;5093756;28;20036;-48
2022/09/23 12:08:31;;;;;;;3.75;1.60;;;17.80;99.90;;;;;;5090217;28;20048;-47
2022/09/23 12:11:00;;;;;;;3.45;1.80;;;17.70;99.90;;;;;;5093751;28;20118;-47
2022/09/23 12:13:30;;;;;;;5.82;1.63;;;17.80;99.90;;;;;;5090978;28;20123;-47
2022/09/23 12:16:20;;;;;;;2.95;1.65;;;17.70;99.90;;;;;;5093734;28;20044;-48
2022/09/23 12:18:58;;;;;;;3.97;1.90;;;17.70;99.90;;;;;;5086799;28;20040;-47
2022/09/23 12:21:46;;;;;;;2.92;1.90;;;17.60;99.90;;;;;;5093541;28;20051;-48
2022/09/23 12:24:45;;;;;;;3.83;2.00;;;17.60;99.90;;;;;;5093087;28;20430;-47
2022/09/23 12:27:24;;;;;;;2.30;1.88;;;17.50;99.90;;;;;;5092757;28;20552;-48
2022/09/23 12:29:57;;;;;;;3.25;1.80;;;17.50;99.90;;;;;;5088142;28;20044;-48
2022/09/23 12:32:25;;;;;;;4.97;2.05;;;17.50;99.90;;;;;;5103518;22;20036;-44
2022/09/23 12:34:52;;;;;;;3.67;2.60;;;17.70;99.90;;;;;;5090600;28;20467;-45
2022/09/23 12:37:26;;;;;;;6.53;2.95;;;17.60;99.90;;;;;;5067050;28;20478;-46
2022/09/23 12:39:57;;;;;;;5.85;2.83;;;17.70;99.90;;;;;;5073290;28;20445;-46
2022/09/23 12:42:24;;;;;;;6.32;2.88;;;17.70;99.90;;;;;;5072962;28;20063;-45
2022/09/23 12:45:16;;;;;;;6.07;3.30;;;17.70;99.90;;;;;;5069684;28;20051;-45
2022/09/23 12:47:43;;;;;;;5.88;3.45;;;17.80;99.90;;;;;;5066497;28;20071;-44
2022/09/23 12:50:45;;;;;;;10.30;2.90;;;17.80;99.90;;;;;;5072636;28;20501;-47
2022/09/23 12:53:33;;;;;;;3.78;2.92;;;17.90;99.90;;;;;;4982946;28;20059;-45
2022/09/23 12:56:15;;;;;;;2.90;2.13;;;17.90;99.90;;;;;;5084658;28;20548;-44
2022/09/23 12:58:42;;;;;;;5.47;2.95;;;17.90;99.90;;;;;;5089808;28;20040;-45
2022/09/23 13:01:19;;;;;;;4.60;3.00;;;17.80;99.90;;;;;;5069463;28;20127;-46
2022/09/23 13:07:06;;;;;;;4.72;2.47;;;17.70;99.90;;;;;;5070724;28;20036;-46
2022/09/23 13:09:41;;;;;;;4.20;2.85;;;17.60;99.90;;;;;;5062168;28;20501;-45
2022/09/23 13:12:22;;;;;;;4.75;2.85;;;17.60;99.90;;;;;;5072246;28;20144;-45
2022/09/23 13:14:51;;;;;;;6.70;2.80;;;17.70;99.90;;;;;;5069646;28;20131;-44
2022/09/23 13:17:44;;;;;;;5.32;2.40;;;17.80;99.90;;;;;;5072113;28;20067;-45
2022/09/23 13:20:35;;;;;;;5.72;2.80;;;17.90;99.90;;;;;;5066974;28;20139;-46
2022/09/23 13:23:14;;;;;;;4.18;2.55;;;17.90;99.90;;;;;;5067821;28;20051;-46
2022/09/23 13:25:42;;;;;;;5.80;2.33;;;17.90;99.90;;;;;;5064792;28;20123;-46
2022/09/23 13:28:38;;;;;;;5.35;2.85;;;17.90;99.90;;;;;;5071921;28;20076;-47
2022/09/23 13:31:13;;;;;;;5.72;2.83;;;18.00;99.90;;;;;;5071939;28;20072;-47
2022/09/23 13:33:49;;;;;;;5.47;2.67;;;18.10;99.90;;;;;;5065793;28;20084;-47
2022/09/23 13:36:17;;;;;;;5.00;3.72;;;18.00;99.90;;;;;;5071396;28;20127;-47
2022/09/23 13:38:45;;;;;;;8.85;2.70;;;17.80;99.90;;;;;;5064573;28;20123;-46
2022/09/23 13:41:22;;;;;;;5.13;2.70;;;17.80;99.90;;;;;;5076174;28;20446;-47
2022/09/23 13:43:57;;;;;;;15.23;3.03;;;17.80;99.90;;;;;;5089399;28;20068;-47
2022/09/23 13:46:28;;;;;;;7.65;2.30;;;17.90;99.90;;;;;;5085866;28;20040;-47